Time;durP1;ratioP1;P1;durP2;ratioP2;P2;SDS_P1;SDS_P2;PMS_P1;PMS_P2;Temp;Humidity;BMP_temperature;BMP_pressure;BME280_temperature;BME280_humidity;BME280_pressure;Samples;Min_cycle;Max_cycle;Signal;HPM_P1;HPM_P2
2021/11/28 00:02:06;;;;;;;32.75;22.10;;;;;;;6.53;70.60;92195.44;5107015;28;20024;-37
2021/11/28 00:04:31;;;;;;;38.72;21.73;;;;;;;6.34;70.56;92200.59;5103396;28;20458;-37
2021/11/28 00:07:01;;;;;;;31.40;20.38;;;;;;;6.15;71.52;92194.06;5103362;28;20023;-37
2021/11/28 00:14:38;;;;;;;26.00;17.05;;;;;;;5.57;73.00;92134.72;5100018;28;20062;-37
2021/11/28 00:17:04;;;;;;;24.25;17.42;;;;;;;6.01;72.84;92168.84;5098767;28;20032;-38
2021/11/28 00:19:30;;;;;;;27.63;17.73;;;;;;;6.13;72.61;92171.97;5100493;28;20058;-37
2021/11/28 00:21:55;;;;;;;29.52;18.00;;;;;;;6.11;72.56;92173.22;5103868;28;20051;-37
2021/11/28 00:24:21;;;;;;;29.10;17.75;;;;;;;6.26;72.57;92169.72;5102748;28;20914;-38
2021/11/28 00:26:48;;;;;;;27.35;18.13;;;;;;;6.42;71.58;92170.41;5101417;28;20020;-37
2021/11/28 00:29:14;;;;;;;23.38;16.13;;;;;;;6.44;71.63;92160.34;5101912;28;20563;-38
2021/11/28 00:31:40;;;;;;;23.85;16.05;;;;;;;6.61;70.79;92159.75;5100876;28;20024;-38
2021/11/28 00:34:05;;;;;;;21.70;15.57;;;;;;;6.54;70.97;92158.47;5100864;28;20096;-38
2021/11/28 00:36:31;;;;;;;22.40;15.75;;;;;;;6.49;71.21;92172.41;5100453;28;20027;-38
2021/11/28 00:38:56;;;;;;;17.45;11.68;;;;;;;6.51;71.30;92175.31;5099618;28;20066;-37
2021/11/28 00:41:22;;;;;;;15.68;9.27;;;;;;;6.44;71.16;92170.59;5100198;28;20027;-36
2021/11/28 00:43:49;;;;;;;16.92;9.35;;;;;;;6.45;70.96;92166.56;5102281;28;20024;-37
2021/11/28 00:46:15;;;;;;;11.90;9.30;;;;;;;6.29;71.13;92165.16;5098925;28;20020;-39
2021/11/28 00:48:43;;;;;;;15.93;10.07;;;;;;;5.95;73.12;92160.09;5101281;28;20118;-39
2021/11/28 00:53:40;;;;;;;15.82;10.50;;;;;;;6.08;73.15;92160.66;5091040;28;20039;-39
2021/11/28 00:56:06;;;;;;;16.55;10.73;;;;;;;6.00;73.14;92168.13;5100577;28;20053;-39
2021/11/28 00:58:31;;;;;;;17.55;12.13;;;;;;;6.15;73.78;92156.41;5102052;28;20100;-39
2021/11/28 01:00:57;;;;;;;16.23;10.75;;;;;;;6.29;72.51;92162.41;5101037;28;20031;-39
2021/11/28 01:03:22;;;;;;;17.65;10.90;;;;;;;6.34;71.85;92158.75;5100455;28;20023;-39
2021/11/28 01:05:49;;;;;;;17.23;11.27;;;;;;;6.39;72.21;92164.03;5099662;28;21393;-39
2021/11/28 01:08:17;;;;;;;17.50;11.90;;;;;;;6.42;72.29;92153.97;5100807;28;20066;-39
2021/11/28 01:10:45;;;;;;;16.27;11.25;;;;;;;6.39;71.39;92155.09;5100994;28;20027;-39
2021/11/28 01:13:10;;;;;;;17.83;11.80;;;;;;;6.37;71.52;92154.88;5100579;28;20023;-38
2021/11/28 01:15:36;;;;;;;18.27;12.23;;;;;;;6.13;72.60;92139.78;5099314;28;20045;-36
2021/11/28 01:18:02;;;;;;;19.42;12.10;;;;;;;6.14;72.83;92146.72;5103262;28;20465;-37
2021/11/28 01:20:27;;;;;;;19.17;11.95;;;;;;;6.26;72.73;92149.81;5101167;28;20060;-36
2021/11/28 01:22:53;;;;;;;19.45;12.90;;;;;;;6.12;73.45;92146.56;5102522;28;20035;-36
2021/11/28 01:25:19;;;;;;;45.13;24.85;;;;;;;5.82;74.07;92147.31;5089800;28;20028;-38
2021/11/28 01:27:46;;;;;;;19.48;11.63;;;;;;;6.03;73.70;92163.56;5105200;27;20034;-38
2021/11/28 01:30:12;;;;;;;15.55;11.43;;;;;;;6.00;73.89;92142.72;5101985;28;20104;-38
2021/11/28 01:32:38;;;;;;;22.52;12.85;;;;;;;6.06;73.33;92160.44;5098922;28;20028;-38
2021/11/28 01:35:09;;;;;;;24.50;14.90;;;;;;;5.53;74.49;92159.72;5097975;28;20055;-38
2021/11/28 01:37:36;;;;;;;26.20;16.20;;;;;;;5.45;75.03;92156.25;5100498;28;20032;-35
2021/11/28 01:40:11;;;;;;;32.05;17.10;;;;;;;5.20;76.33;92152.56;5100417;28;20023;-36
2021/11/28 01:42:53;;;;;;;32.67;20.02;;;;;;;5.29;76.04;92141.09;5101078;28;20024;-36
2021/11/28 01:45:25;;;;;;;22.52;14.35;;;;;;;5.37;75.13;92136.38;5098030;28;20028;-37
2021/11/28 01:47:52;;;;;;;19.35;11.90;;;;;;;5.24;76.03;92125.59;5099667;28;20528;-37
2021/11/28 01:50:18;;;;;;;23.95;11.85;;;;;;;5.34;75.84;92121.03;5100159;28;20048;-37
2021/11/28 01:52:44;;;;;;;20.33;10.38;;;;;;;5.29;75.59;92121.94;5101075;28;20027;-36
2021/11/28 01:55:16;;;;;;;47.58;29.42;;;;;;;5.23;75.20;92137.81;5099932;28;20461;-37
2021/11/28 01:57:43;;;;;;;17.25;11.30;;;;;;;5.07;75.13;92137.06;5097579;28;20028;-37
2021/11/28 02:00:13;;;;;;;20.73;13.27;;;;;;;5.10;74.67;92122.31;5100463;28;20404;-37
2021/11/28 02:02:38;;;;;;;24.80;13.07;;;;;;;5.24;74.53;92142.72;5101131;28;20020;-36
2021/11/28 02:05:04;;;;;;;18.02;11.98;;;;;;;5.26;74.64;92156.59;5099576;28;20481;-37
2021/11/28 02:07:30;;;;;;;24.38;12.98;;;;;;;5.38;74.63;92160.47;5098969;28;20504;-40
2021/11/28 02:09:56;;;;;;;21.65;12.20;;;;;;;5.25;74.62;92138.00;5099953;28;20024;-40
2021/11/28 02:12:29;;;;;;;18.25;11.85;;;;;;;5.24;75.23;92150.22;5101315;28;20106;-39
2021/11/28 02:14:58;;;;;;;25.63;12.38;;;;;;;4.99;76.45;92146.53;5091411;28;20508;-39
2021/11/28 02:17:24;;;;;;;10.10;6.68;;;;;;;4.93;77.18;92148.72;5099307;28;20099;-39
2021/11/28 02:19:50;;;;;;;17.30;10.75;;;;;;;5.06;77.12;92154.03;5100336;28;20138;-40
2021/11/28 02:22:16;;;;;;;15.52;9.52;;;;;;;5.24;76.94;92147.50;5097970;28;20030;-39
2021/11/28 02:24:41;;;;;;;16.88;9.75;;;;;;;5.37;76.94;92141.84;5089433;28;20046;-40
2021/11/28 02:27:07;;;;;;;21.13;13.27;;;;;;;5.44;76.64;92141.09;5097964;28;20079;-39
2021/11/28 02:29:33;;;;;;;22.50;14.70;;;;;;;5.52;75.60;92128.16;5101451;28;20024;-39
2021/11/28 02:31:58;;;;;;;20.73;12.80;;;;;;;5.64;74.71;92139.47;5099132;28;20019;-38
2021/11/28 02:34:24;;;;;;;20.10;12.52;;;;;;;5.66;74.68;92137.63;5099195;28;20028;-39
2021/11/28 02:36:53;;;;;;;19.90;12.90;;;;;;;5.52;75.21;92130.16;5099304;28;20034;-40
2021/11/28 02:39:22;;;;;;;19.65;12.18;;;;;;;5.62;75.00;92131.81;5099978;28;20058;-39
2021/11/28 02:41:48;;;;;;;21.27;11.95;;;;;;;5.68;74.23;92126.13;5097406;28;20027;-38
2021/11/28 02:44:15;;;;;;;23.05;12.98;;;;;;;5.70;74.70;92140.75;5098497;28;20458;-36
2021/11/28 02:46:41;;;;;;;17.08;10.57;;;;;;;5.53;74.60;92124.13;5098854;28;20032;-36
2021/11/28 02:49:07;;;;;;;20.50;14.40;;;;;;;5.59;75.74;92135.63;5096777;28;20120;-36
2021/11/28 02:51:34;;;;;;;19.55;12.25;;;;;;;5.61;75.13;92132.38;5098226;28;20025;-35
2021/11/28 02:54:00;;;;;;;24.25;12.68;;;;;;;5.50;75.31;92138.91;5098858;28;20408;-36
2021/11/28 02:56:26;;;;;;;25.67;13.52;;;;;;;5.11;76.27;92137.44;5098488;28;20031;-36
2021/11/28 02:58:52;;;;;;;54.17;29.05;;;;;;;5.18;76.93;92128.50;5097273;28;20111;-36
2021/11/28 03:01:19;;;;;;;33.88;18.85;;;;;;;5.38;76.48;92133.09;5099021;28;20493;-37
2021/11/28 03:03:45;;;;;;;14.52;9.27;;;;;;;5.33;76.97;92117.56;5099525;28;20027;-38
2021/11/28 03:06:10;;;;;;;9.00;6.88;;;;;;;5.31;78.34;92102.97;5099649;28;20034;-37
2021/11/28 03:08:37;;;;;;;14.35;6.43;;;;;;;5.43;78.76;92112.28;5100230;28;20032;-38
2021/11/28 03:11:03;;;;;;;24.27;12.73;;;;;;;5.57;77.83;92118.28;5099410;28;20031;-38
2021/11/28 03:13:32;;;;;;;19.42;12.18;;;;;;;5.66;76.25;92110.25;5101887;28;20032;-38
2021/11/28 03:16:04;;;;;;;21.77;13.05;;;;;;;5.81;75.28;92102.03;5100988;28;20066;-38
2021/11/28 03:18:30;;;;;;;21.80;12.63;;;;;;;5.85;74.70;92101.66;5100463;28;20035;-38
2021/11/28 03:21:02;;;;;;;20.02;12.38;;;;;;;5.82;75.05;92095.28;5102272;28;20042;-38
2021/11/28 03:23:30;;;;;;;22.90;12.10;;;;;;;5.85;74.84;92099.66;5099137;28;20030;-38
2021/11/28 03:26:10;;;;;;;20.05;12.20;;;;;;;5.78;74.87;92091.44;5101118;28;20030;-38
2021/11/28 03:28:39;;;;;;;21.55;12.63;;;;;;;5.55;75.65;92096.94;5099927;28;20047;-38
2021/11/28 03:31:05;;;;;;;18.02;10.88;;;;;;;5.80;74.71;92083.41;5099145;28;20039;-37
2021/11/28 03:33:31;;;;;;;16.08;10.00;;;;;;;5.83;74.82;92079.56;5101290;28;20051;-38
2021/11/28 03:35:57;;;;;;;19.25;11.00;;;;;;;5.57;75.66;92077.22;5102112;28;20046;-38
2021/11/28 03:38:23;;;;;;;29.98;16.27;;;;;;;5.33;76.13;92060.09;5103385;28;20020;-38
2021/11/28 03:40:48;;;;;;;24.02;13.45;;;;;;;5.20;77.56;92079.44;5101898;28;20015;-37
2021/11/28 03:43:14;;;;;;;18.13;11.27;;;;;;;5.29;77.75;92075.44;5101361;28;20046;-37
2021/11/28 03:45:40;;;;;;;28.48;18.25;;;;;;;5.34;77.56;92082.72;5101556;28;20024;-38
2021/11/28 03:48:05;;;;;;;27.00;15.95;;;;;;;5.47;76.59;92079.06;5101321;28;20511;-38
2021/11/28 03:50:31;;;;;;;26.80;16.83;;;;;;;5.35;76.42;92073.22;5101642;28;20015;-39
2021/11/28 03:52:57;;;;;;;21.92;13.98;;;;;;;5.29;76.05;92078.16;5098105;28;20026;-39
2021/11/28 03:55:24;;;;;;;27.15;15.68;;;;;;;5.18;76.43;92067.59;5096715;28;20027;-38
2021/11/28 03:57:49;;;;;;;23.42;13.73;;;;;;;5.11;76.50;92062.84;5098214;28;20024;-37
2021/11/28 04:00:15;;;;;;;25.35;14.82;;;;;;;5.03;76.02;92048.44;5100247;28;20386;-39
2021/11/28 04:02:41;;;;;;;64.65;33.05;;;;;;;5.08;75.53;92074.88;5099435;28;20397;-39
2021/11/28 04:05:08;;;;;;;22.67;13.90;;;;;;;4.86;76.88;92084.53;5098357;28;20492;-39
2021/11/28 04:07:33;;;;;;;51.45;25.20;;;;;;;4.68;76.33;92066.44;5097259;28;20028;-39
2021/11/28 04:09:59;;;;;;;38.20;21.40;;;;;;;4.59;77.57;92100.50;5097016;28;20028;-40
2021/11/28 04:12:25;;;;;;;33.58;19.35;;;;;;;4.73;76.34;92111.28;5097854;28;20413;-40
2021/11/28 04:14:51;;;;;;;36.67;22.52;;;;;;;4.66;76.16;92109.28;5096425;28;20743;-39
2021/11/28 04:17:16;;;;;;;40.80;24.60;;;;;;;4.36;76.49;92120.81;5097086;28;20023;-39
2021/11/28 04:19:42;;;;;;;36.97;22.15;;;;;;;4.57;77.10;92156.97;5097161;28;20077;-37
2021/11/28 04:22:08;;;;;;;34.80;20.13;;;;;;;4.51;76.99;92167.34;5100825;28;20398;-38
2021/11/28 04:24:33;;;;;;;40.65;21.38;;;;;;;4.15;78.23;92189.22;5097071;28;20099;-37
2021/11/28 04:26:59;;;;;;;29.65;16.52;;;;;;;3.99;79.07;92214.97;5096097;28;20016;-36
2021/11/28 04:29:25;;;;;;;27.80;17.02;;;;;;;3.92;79.25;92228.56;5099449;28;20027;-36
2021/11/28 04:31:51;;;;;;;31.10;18.83;;;;;;;4.19;78.74;92252.44;5099922;28;20527;-37
2021/11/28 04:34:16;;;;;;;26.63;15.73;;;;;;;4.31;79.34;92258.34;5099804;28;20070;-37
2021/11/28 04:36:42;;;;;;;26.58;16.25;;;;;;;4.25;79.21;92252.28;5102475;28;20492;-37
2021/11/28 04:39:08;;;;;;;29.35;18.13;;;;;;;4.37;79.25;92267.13;5101381;28;20059;-37
2021/11/28 04:41:34;;;;;;;20.98;14.18;;;;;;;3.93;79.54;92247.16;5103270;28;20055;-37
2021/11/28 04:44:00;;;;;;;23.63;15.15;;;;;;;3.90;80.33;92234.56;5100973;28;20055;-37
2021/11/28 04:46:25;;;;;;;23.20;13.35;;;;;;;4.27;80.43;92236.06;5104234;28;20035;-37
2021/11/28 04:48:51;;;;;;;15.68;10.70;;;;;;;4.43;78.96;92238.38;5104127;28;20092;-37
2021/11/28 04:51:17;;;;;;;17.70;10.85;;;;;;;4.20;78.93;92199.25;5099776;28;20028;-37
2021/11/28 04:53:42;;;;;;;15.95;9.82;;;;;;;4.47;78.87;92227.09;5100154;28;20008;-37
2021/11/28 04:56:08;;;;;;;14.50;10.23;;;;;;;4.46;78.36;92225.63;5101152;28;20016;-37
2021/11/28 04:58:33;;;;;;;23.45;14.98;;;;;;;4.37;78.74;92210.47;5101928;28;20032;-37
2021/11/28 05:00:59;;;;;;;22.25;12.55;;;;;;;4.46;79.39;92215.41;5098612;28;20020;-37
2021/11/28 05:03:25;;;;;;;22.95;13.93;;;;;;;4.49;79.55;92211.63;5101402;28;20584;-36
2021/11/28 05:05:50;;;;;;;110.93;74.85;;;;;;;4.49;79.32;92203.41;5101283;28;20047;-36
2021/11/28 05:08:16;;;;;;;44.40;27.70;;;;;;;4.55;79.56;92189.59;5098245;28;20023;-37
2021/11/28 05:10:41;;;;;;;32.22;20.95;;;;;;;4.53;79.31;92198.34;5102979;28;20036;-36
2021/11/28 05:13:07;;;;;;;25.25;15.63;;;;;;;4.49;79.10;92199.94;5102937;28;20032;-36
2021/11/28 05:15:32;;;;;;;24.33;14.65;;;;;;;4.57;79.07;92201.44;5101573;28;20096;-36
2021/11/28 05:17:58;;;;;;;21.10;14.60;;;;;;;4.42;79.74;92195.16;5101104;28;20039;-36
2021/11/28 05:20:23;;;;;;;27.02;16.13;;;;;;;4.49;79.31;92200.69;5102564;28;20532;-36
2021/11/28 05:22:49;;;;;;;27.08;15.52;;;;;;;4.23;80.32;92198.19;5102285;28;20562;-36
2021/11/28 05:25:15;;;;;;;143.35;75.43;;;;;;;4.11;80.81;92197.03;5101078;28;20048;-36
2021/11/28 05:27:42;;;;;;;59.00;32.10;;;;;;;4.08;81.36;92203.56;5104271;28;20031;-36
2021/11/28 05:30:08;;;;;;;36.92;21.42;;;;;;;3.90;82.57;92204.53;5103260;28;20023;-36
2021/11/28 05:32:34;;;;;;;22.33;12.88;;;;;;;3.92;83.61;92190.34;5100630;28;20417;-36
2021/11/28 05:34:59;;;;;;;39.00;25.20;;;;;;;4.02;82.87;92213.91;5102487;28;20052;-36
2021/11/28 05:37:25;;;;;;;21.40;13.38;;;;;;;4.05;82.10;92221.00;5100918;28;20024;-37
2021/11/28 05:39:50;;;;;;;20.77;15.60;;;;;;;4.20;81.38;92215.63;5102563;28;20023;-36
2021/11/28 05:42:16;;;;;;;26.60;14.45;;;;;;;4.13;81.40;92235.47;5102374;28;20027;-37
2021/11/28 05:44:42;;;;;;;36.88;21.15;;;;;;;4.05;nan;92231.94;5099348;28;20027;-37
2021/11/28 05:47:07;;;;;;;26.88;13.90;;;;;;;4.08;81.15;92235.59;5103645;28;20035;-36
2021/11/28 05:49:33;;;;;;;24.48;15.18;;;;;;;4.08;80.94;92236.31;5103231;28;20472;-36
2021/11/28 05:51:58;;;;;;;24.33;14.00;;;;;;;4.03;81.21;92241.94;5102568;28;20077;-36
2021/11/28 05:54:24;;;;;;;31.08;15.10;;;;;;;4.10;81.70;92236.53;5100846;28;20049;-37
2021/11/28 05:56:50;;;;;;;48.75;26.25;;;;;;;4.03;81.43;92231.72;5101893;28;20039;-36
2021/11/28 05:59:15;;;;;;;84.70;48.35;;;;;;;4.22;80.67;92237.69;5099747;28;20023;-37
2021/11/28 06:01:41;;;;;;;38.05;23.10;;;;;;;4.14;80.84;92228.72;5100368;28;20620;-37
2021/11/28 06:04:06;;;;;;;28.30;17.35;;;;;;;4.26;80.71;92210.78;5098759;28;20015;-37
2021/11/28 06:06:32;;;;;;;25.27;16.08;;;;;;;4.28;79.86;92202.78;5103382;28;20037;-37
2021/11/28 06:08:58;;;;;;;48.33;28.05;;;;;;;4.27;80.00;92206.75;5101196;28;20114;-37
2021/11/28 06:11:23;;;;;;;76.97;46.53;;;;;;;4.07;79.58;92199.34;5105175;27;20408;-38
2021/11/28 06:13:49;;;;;;;54.67;31.50;;;;;;;4.05;79.12;92223.03;5100331;28;20543;-37
2021/11/28 06:16:14;;;;;;;58.67;35.08;;;;;;;3.69;80.50;92225.66;5101129;27;20043;-37
2021/11/28 06:18:40;;;;;;;49.10;29.17;;;;;;;3.68;80.93;92238.56;5100440;28;20481;-36
2021/11/28 06:21:05;;;;;;;46.58;27.67;;;;;;;3.88;80.60;92239.81;5099922;28;20020;-38
2021/11/28 06:23:31;;;;;;;46.67;26.75;;;;;;;3.98;80.23;92251.00;5100487;28;20036;-36
2021/11/28 06:25:57;;;;;;;29.80;20.35;;;;;;;4.01;80.42;92253.38;5100786;28;20084;-36
2021/11/28 06:28:23;;;;;;;34.08;18.73;;;;;;;4.10;80.03;92263.09;5100196;27;20098;-37
2021/11/28 06:30:48;;;;;;;29.08;17.27;;;;;;;3.88;80.77;92250.75;5097013;28;20462;-37
2021/11/28 06:33:14;;;;;;;26.33;16.52;;;;;;;3.99;80.90;92271.56;5097928;28;20011;-36
2021/11/28 06:35:40;;;;;;;14.57;9.43;;;;;;;4.23;80.50;92274.66;5099291;28;20136;-37
2021/11/28 06:38:05;;;;;;;19.60;14.13;;;;;;;4.34;80.36;92274.38;5100412;28;20595;-37
2021/11/28 06:40:31;;;;;;;18.38;11.90;;;;;;;4.36;80.30;92271.84;5098769;28;20084;-37
2021/11/28 06:42:57;;;;;;;34.53;20.55;;;;;;;4.45;80.36;92279.56;5097783;28;20040;-37
2021/11/28 06:45:23;;;;;;;86.75;43.72;;;;;;;4.49;78.85;92255.34;5097046;28;20575;-36
2021/11/28 06:47:48;;;;;;;74.18;42.92;;;;;;;4.31;79.40;92239.94;5096211;28;20451;-37
2021/11/28 06:50:14;;;;;;;96.00;52.20;;;;;;;4.53;79.72;92255.72;5098126;28;20098;-38
2021/11/28 06:52:40;;;;;;;104.85;55.28;;;;;;;4.60;79.51;92274.19;5096954;28;20504;-37
2021/11/28 06:55:06;;;;;;;119.90;63.75;;;;;;;4.45;80.60;92265.91;5097331;28;20493;-38
2021/11/28 06:57:32;;;;;;;136.65;71.00;;;;;;;4.75;79.98;92275.50;5099471;28;20031;-37
2021/11/28 06:59:58;;;;;;;99.45;53.63;;;;;;;4.98;79.94;92276.38;5098546;28;20040;-38
2021/11/28 07:02:24;;;;;;;147.02;82.22;;;;;;;4.98;79.66;92276.38;5099610;28;20508;-38
2021/11/28 07:04:49;;;;;;;82.95;48.28;;;;;;;5.23;80.08;92260.94;5101571;27;21256;-37
2021/11/28 07:07:15;;;;;;;122.15;69.70;;;;;;;5.49;78.47;92246.97;5104802;27;20084;-38
2021/11/28 07:09:40;;;;;;;74.15;43.13;;;;;;;5.91;79.17;92259.06;5100642;27;20031;-37
2021/11/28 07:12:06;;;;;;;67.45;42.10;;;;;;;6.45;76.69;92249.56;5099204;28;20104;-37
2021/11/28 07:14:32;;;;;;;56.83;33.67;;;;;;;6.93;74.96;92200.22;5100640;28;20034;-37
2021/11/28 07:16:58;;;;;;;70.07;43.67;;;;;;;7.84;71.72;92241.66;5101060;28;20031;-37
2021/11/28 07:19:23;;;;;;;76.32;48.15;;;;;;;7.74;70.89;92238.75;5098492;28;20032;-38
2021/11/28 07:21:50;;;;;;;53.10;35.58;;;;;;;7.57;72.84;92266.16;5098795;28;20115;-37
2021/11/28 07:24:16;;;;;;;94.53;54.72;;;;;;;7.63;72.63;92275.66;5098115;28;20085;-38
2021/11/28 07:26:41;;;;;;;79.28;49.10;;;;;;;8.27;71.25;92274.84;5096808;28;20586;-37
2021/11/28 07:29:07;;;;;;;83.15;51.60;;;;;;;8.62;69.26;92280.47;5095708;28;20072;-38
2021/11/28 07:31:32;;;;;;;64.78;38.08;;;;;;;8.57;70.58;92281.41;5094883;28;20024;-38
2021/11/28 07:33:58;;;;;;;66.50;42.85;;;;;;;8.65;70.12;92271.78;5096005;28;20028;-38
2021/11/28 07:36:24;;;;;;;73.03;44.55;;;;;;;8.46;70.42;92277.09;5099073;28;20132;-37
2021/11/28 07:38:49;;;;;;;54.33;34.22;;;;;;;8.47;70.50;92255.84;5095071;28;20682;-39
2021/11/28 07:41:15;;;;;;;113.82;71.68;;;;;;;9.00;69.33;92278.78;5096146;28;20024;-39
2021/11/28 07:43:40;;;;;;;103.50;65.30;;;;;;;9.13;68.16;92286.00;5095600;28;20035;-39
2021/11/28 07:46:06;;;;;;;85.25;52.40;;;;;;;9.07;69.23;92269.69;5098317;28;20035;-39
2021/11/28 07:48:32;;;;;;;121.03;71.88;;;;;;;9.27;69.25;92251.28;5098343;28;20122;-38
2021/11/28 07:50:58;;;;;;;45.10;28.55;;;;;;;9.37;68.62;92238.34;5096043;28;20034;-37
2021/11/28 07:53:26;;;;;;;15.05;10.15;;;;;;;9.87;67.17;92244.97;5095652;28;20012;-37
2021/11/28 07:55:52;;;;;;;11.37;9.10;;;;;;;10.22;66.65;92270.41;5096943;28;20711;-37
2021/11/28 07:58:18;;;;;;;8.02;3.85;;;;;;;11.02;63.86;92237.03;5092408;28;20524;-38
2021/11/28 08:00:44;;;;;;;4.30;2.80;;;;;;;11.33;62.62;92234.41;5096805;28;20020;-39
2021/11/28 08:03:09;;;;;;;2.97;2.13;;;;;;;11.42;61.49;92234.44;5096428;28;20050;-38
2021/11/28 08:05:35;;;;;;;1.92;1.70;;;;;;;11.55;60.74;92240.81;5099464;28;20073;-41
2021/11/28 08:08:01;;;;;;;4.90;2.17;;;;;;;11.79;60.80;92229.44;5099251;28;20063;-39
2021/11/28 08:10:26;;;;;;;2.83;1.75;;;;;;;12.03;58.75;92222.81;5099377;28;20032;-39
2021/11/28 08:12:52;;;;;;;3.70;1.52;;;;;;;11.92;58.60;92223.44;5098512;28;20026;-41
2021/11/28 08:15:19;;;;;;;3.33;1.50;;;;;;;12.35;59.25;92232.59;5097562;28;20110;-40
2021/11/28 08:17:46;;;;;;;1.90;1.30;;;;;;;12.74;56.69;92244.19;5099912;28;20127;-40
2021/11/28 08:20:12;;;;;;;2.10;1.85;;;;;;;13.15;57.40;92256.63;5099834;28;20322;-39
2021/11/28 08:22:38;;;;;;;5.20;1.80;;;;;;;13.33;54.83;92246.00;5100557;28;20015;-38
2021/11/28 08:25:05;;;;;;;1.40;1.30;;;;;;;13.81;51.54;92246.31;5100340;28;20049;-40
2021/11/28 08:27:30;;;;;;;1.75;1.33;;;;;;;13.92;50.27;92237.31;5098971;28;20508;-38
2021/11/28 08:29:59;;;;;;;1.85;1.67;;;;;;;14.04;51.23;92232.50;5099903;28;20030;-39
2021/11/28 08:32:24;;;;;;;3.53;1.30;;;;;;;13.80;52.67;92225.44;5098057;28;20027;-38
2021/11/28 08:34:50;;;;;;;4.63;1.77;;;;;;;14.16;50.05;92233.22;5101234;28;20423;-37
2021/11/28 08:37:15;;;;;;;1.15;1.00;;;;;;;14.53;49.87;92236.16;5097511;28;20098;-40
2021/11/28 08:39:41;;;;;;;0.90;0.80;;;;;;;15.09;47.82;92239.50;5098847;28;20024;-40
2021/11/28 08:42:10;;;;;;;3.35;1.17;;;;;;;15.75;47.33;92239.09;5099319;28;20032;-40
2021/11/28 08:44:36;;;;;;;0.80;0.80;;;;;;;16.28;44.57;92274.06;5099060;28;20062;-40
2021/11/28 08:47:03;;;;;;;2.53;1.95;;;;;;;15.59;46.76;92268.81;5097917;28;20416;-40
2021/11/28 08:49:28;;;;;;;1.75;1.33;;;;;;;15.83;45.14;92265.31;5098891;28;20023;-40
2021/11/28 08:51:54;;;;;;;1.40;0.80;;;;;;;15.95;44.60;92262.47;5089024;28;20046;-40
2021/11/28 08:54:20;;;;;;;0.65;0.65;;;;;;;16.14;43.32;92262.13;5100361;28;20516;-41
2021/11/28 08:56:49;;;;;;;5.35;1.42;;;;;;;16.27;44.04;92266.28;5100326;28;20076;-40
2021/11/28 08:59:16;;;;;;;2.78;1.38;;;;;;;16.18;42.94;92267.91;5102248;28;20039;-40
2021/11/28 09:01:42;;;;;;;1.25;1.15;;;;;;;15.93;43.04;92259.59;5101400;28;20055;-39
2021/11/28 09:04:07;;;;;;;1.52;1.10;;;;;;;15.64;43.27;92279.53;5099294;28;20058;-41
2021/11/28 09:06:33;;;;;;;0.90;0.80;;;;;;;15.39;43.71;92273.19;5101896;28;20081;-39
2021/11/28 09:08:59;;;;;;;3.03;1.40;;;;;;;14.86;45.19;92267.34;5098513;28;20424;-40
2021/11/28 09:11:24;;;;;;;1.23;1.13;;;;;;;14.81;45.66;92276.06;5097283;28;20038;-40
2021/11/28 09:13:50;;;;;;;7.13;1.15;;;;;;;14.66;45.27;92260.56;5096308;28;20092;-41
2021/11/28 09:16:16;;;;;;;2.25;1.13;;;;;;;14.76;44.84;92274.34;5096896;28;20027;-40
2021/11/28 09:18:49;;;;;;;1.00;0.82;;;;;;;14.81;44.48;92279.53;5096833;28;20110;-39
2021/11/28 09:21:16;;;;;;;1.52;1.02;;;;;;;14.47;44.90;92260.81;5096696;28;20052;-40
2021/11/28 09:26:30;;;;;;;3.92;1.10;;;;;;;14.64;44.87;92293.78;5098873;28;20039;-40
2021/11/28 09:28:59;;;;;;;1.85;1.08;;;;;;;14.55;45.27;92282.81;5099022;28;20535;-39
2021/11/28 09:31:25;;;;;;;1.35;1.25;;;;;;;14.24;46.18;92277.41;5099621;28;20032;-40
2021/11/28 09:33:51;;;;;;;2.38;1.50;;;;;;;14.50;46.08;92272.78;5101222;27;20028;-40
2021/11/28 09:36:17;;;;;;;2.65;1.80;;;;;;;14.42;46.13;92264.69;5097497;28;20063;-40
2021/11/28 09:38:43;;;;;;;1.50;1.23;;;;;;;14.39;45.85;92246.44;5098583;28;20114;-40
2021/11/28 09:41:11;;;;;;;3.45;1.20;;;;;;;14.36;45.28;92228.94;5099469;27;20173;-39
2021/11/28 09:43:40;;;;;;;2.30;1.10;;;;;;;14.43;44.72;92230.75;5098908;27;20024;-40
2021/11/28 09:46:06;;;;;;;;;;;;;;;14.44;44.71;92223.84;5101411;27;20027;-40
2021/11/28 09:48:36;;;;;;;3.17;0.93;;;;;;;14.65;44.99;92220.25;5096639;28;19972;-41
2021/11/28 09:51:07;;;;;;;1.05;0.70;;;;;;;14.87;44.51;92213.22;5097360;28;20521;-41
2021/11/28 09:53:34;;;;;;;1.10;1.00;;;;;;;14.81;44.37;92232.28;5097671;28;20057;-41
2021/11/28 09:56:01;;;;;;;3.17;1.30;;;;;;;14.75;45.55;92234.72;5097972;28;20505;-41
2021/11/28 09:58:28;;;;;;;3.65;1.80;;;;;;;14.84;45.45;92222.03;5097016;28;20077;-41
2021/11/28 10:00:58;;;;;;;1.38;1.27;;;;;;;14.53;45.00;92196.59;5095831;28;20019;-40
2021/11/28 10:03:24;;;;;;;6.15;1.75;;;;;;;14.67;46.06;92234.25;5098147;28;20442;-41
2021/11/28 10:05:54;;;;;;;2.55;1.50;;;;;;;14.46;45.65;92245.50;5097189;28;20023;-40
2021/11/28 10:08:21;;;;;;;3.42;2.03;;;;;;;14.46;46.66;92258.66;5094751;28;20027;-41
2021/11/28 10:11:17;;;;;;;2.85;1.88;;;;;;;14.17;46.83;92242.28;5096234;28;20102;-39
2021/11/28 10:13:47;;;;;;;2.08;1.88;;;;;;;14.24;47.09;92228.19;5094368;28;20039;-40
2021/11/28 10:16:14;;;;;;;3.40;2.45;;;;;;;14.23;47.13;92223.94;5094841;28;20027;-39
2021/11/28 10:18:40;;;;;;;3.55;2.20;;;;;;;14.23;47.69;92223.94;5093473;28;20109;-40
2021/11/28 10:21:05;;;;;;;3.15;1.75;;;;;;;14.26;47.15;92210.91;5100369;28;20105;-41
2021/11/28 10:23:31;;;;;;;1.52;1.42;;;;;;;14.23;45.92;92206.56;5098828;28;20518;-39
2021/11/28 10:26:14;;;;;;;2.00;1.40;;;;;;;14.04;47.11;92182.53;5087066;28;20437;-44
2021/11/28 10:29:10;;;;;;;2.50;1.42;;;;;;;14.19;45.79;92192.44;5097072;28;20028;-42
2021/11/28 10:31:46;;;;;;;3.05;1.50;;;;;;;14.27;46.46;92199.19;5097112;28;20094;-39
2021/11/28 10:34:14;;;;;;;3.67;1.75;;;;;;;14.16;46.93;92201.97;5096278;28;20454;-40
2021/11/28 10:36:40;;;;;;;2.80;2.30;;;;;;;14.18;47.88;92199.31;5097748;28;20560;-39
2021/11/28 10:39:13;;;;;;;4.65;2.83;;;;;;;14.09;47.88;92195.34;5097626;28;20118;-41
2021/11/28 10:41:52;;;;;;;7.15;3.90;;;;;;;13.89;48.36;92188.56;5097792;28;20459;-39
2021/11/28 10:44:20;;;;;;;6.15;2.95;;;;;;;13.63;49.15;92198.75;5094645;28;20028;-40
2021/11/28 10:46:46;;;;;;;3.75;2.25;;;;;;;13.64;49.07;92191.84;5094915;28;20034;-41
2021/11/28 10:49:20;;;;;;;6.68;2.95;;;;;;;13.68;48.92;92196.94;5095748;28;20036;-38
2021/11/28 10:51:54;;;;;;;1.83;1.60;;;;;;;13.63;48.32;92187.66;5095688;28;20413;-38
2021/11/28 10:54:22;;;;;;;5.72;2.78;;;;;;;13.49;49.12;92189.53;5098384;28;20080;-40
2021/11/28 10:56:49;;;;;;;2.88;2.15;;;;;;;13.13;49.87;92176.16;5101379;27;20459;-38
2021/11/28 10:59:19;;;;;;;2.65;2.10;;;;;;;12.90;50.76;92173.25;5098682;27;20032;-38
2021/11/28 11:01:45;;;;;;;3.10;2.10;;;;;;;13.03;50.39;92180.28;5100272;27;20027;-40
2021/11/28 11:04:21;;;;;;;2.05;1.83;;;;;;;13.08;49.37;92171.66;5087761;28;20047;-40
2021/11/28 11:07:11;;;;;;;2.83;2.05;;;;;;;13.13;47.43;92187.22;5098308;28;20378;-38
2021/11/28 11:09:42;;;;;;;1.42;1.25;;;;;;;13.18;48.97;92177.84;5096237;28;20111;-38
2021/11/28 11:12:20;;;;;;;2.90;2.10;;;;;;;13.06;50.17;92196.47;5097326;28;20027;-37
2021/11/28 11:14:47;;;;;;;4.68;2.38;;;;;;;12.88;50.87;92193.25;5096624;27;20048;-38
2021/11/28 11:17:14;;;;;;;4.35;2.70;;;;;;;12.78;51.13;92194.59;5100361;28;20038;-39
2021/11/28 11:19:44;;;;;;;4.35;2.35;;;;;;;12.58;51.65;92169.06;5096550;28;20036;-38
2021/11/28 11:22:15;;;;;;;3.42;2.60;;;;;;;12.79;51.95;92191.25;5095986;28;20077;-37
2021/11/28 11:24:46;;;;;;;2.50;2.10;;;;;;;12.74;51.68;92195.06;5099451;28;20031;-39
2021/11/28 11:27:18;;;;;;;3.83;3.00;;;;;;;12.95;52.15;92186.03;5094539;28;20424;-37
2021/11/28 11:29:48;;;;;;;4.53;2.80;;;;;;;13.08;51.77;92184.81;5096893;28;20031;-38
2021/11/28 11:32:15;;;;;;;7.45;2.60;;;;;;;12.97;52.01;92197.25;5095948;28;20034;-39
2021/11/28 11:34:56;;;;;;;3.58;2.20;;;;;;;12.88;51.85;92196.00;5095193;28;20703;-38
2021/11/28 11:37:25;;;;;;;6.75;2.53;;;;;;;12.88;51.57;92198.03;5097764;28;21484;-38
2021/11/28 11:39:51;;;;;;;5.95;2.20;;;;;;;12.80;52.42;92197.50;5099265;28;20062;-38